createdAt,value
2022-10-24T00:02:05.093Z,3.03
2022-10-24T00:04:32.443Z,3.05
2022-10-24T00:07:03.948Z,3.17
2022-10-24T00:09:34.037Z,3.03
2022-10-24T00:12:01.569Z,2.80
2022-10-24T00:14:29.102Z,4.07
2022-10-24T00:16:56.351Z,3.33
2022-10-24T00:19:23.826Z,2.97
2022-10-24T00:21:51.042Z,3.40
2022-10-24T00:24:18.420Z,2.67
2022-10-24T00:26:45.920Z,2.75
2022-10-24T00:29:13.297Z,3.17
2022-10-24T00:31:42.074Z,2.92
2022-10-24T00:34:09.334Z,3.30
2022-10-24T00:36:36.565Z,2.95
2022-10-24T00:39:03.799Z,3.40
2022-10-24T00:41:35.643Z,3.33
2022-10-24T00:44:15.263Z,3.30
2022-10-24T00:46:43.528Z,3.20
2022-10-24T00:49:14.816Z,3.42
2022-10-24T00:51:42.851Z,3.25
2022-10-24T00:54:11.904Z,2.78
2022-10-24T00:56:42.529Z,3.45
2022-10-24T00:59:11.160Z,3.22
2022-10-24T01:01:39.063Z,3.88
2022-10-24T01:04:08.009Z,3.38
2022-10-24T01:06:53.880Z,3.10
2022-10-24T01:09:21.034Z,2.75
2022-10-24T01:12:00.583Z,3.17
2022-10-24T01:14:33.760Z,2.63
2022-10-24T01:17:10.256Z,3.10
2022-10-24T01:19:43.588Z,3.00
2022-10-24T01:22:31.338Z,2.90
2022-10-24T01:25:15.202Z,2.45
2022-10-24T01:27:45.455Z,2.45
2022-10-24T01:30:13.998Z,2.75
2022-10-24T01:32:41.204Z,2.58
2022-10-24T01:35:14.056Z,2.83
2022-10-24T01:37:59.676Z,2.83
2022-10-24T01:40:28.917Z,3.17
2022-10-24T01:42:59.392Z,2.88
2022-10-24T01:45:30.850Z,3.25
2022-10-24T01:48:00.147Z,2.42
2022-10-24T01:50:28.376Z,2.38
2022-10-24T01:52:57.216Z,3.13
2022-10-24T01:55:24.793Z,3.00
2022-10-24T01:57:52.029Z,2.58
2022-10-24T02:00:20.848Z,2.80
2022-10-24T02:02:50.995Z,3.17
2022-10-24T02:05:18.371Z,2.97
2022-10-24T02:07:47.219Z,2.60
2022-10-24T02:10:25.911Z,2.88
2022-10-24T02:12:54.696Z,2.95
2022-10-24T02:15:27.805Z,4.13
2022-10-24T02:17:55.528Z,2.53
2022-10-24T02:20:28.265Z,2.90
2022-10-24T02:23:08.654Z,2.60
2022-10-24T02:25:37.311Z,3.10
2022-10-24T02:28:22.339Z,2.60
2022-10-24T02:30:52.772Z,2.25
2022-10-24T02:33:22.996Z,2.40
2022-10-24T02:35:52.617Z,2.35
2022-10-24T02:38:23.449Z,2.90
2022-10-24T02:40:51.265Z,3.08
2022-10-24T02:43:19.820Z,2.60
2022-10-24T02:45:47.710Z,2.47
2022-10-24T02:48:17.483Z,2.67
2022-10-24T02:50:45.210Z,2.45
2022-10-24T02:53:15.889Z,2.38
2022-10-24T02:55:43.323Z,2.45
2022-10-24T02:58:10.524Z,2.58
2022-10-24T03:00:37.923Z,2.42
2022-10-24T03:03:05.241Z,2.53
2022-10-24T03:05:32.496Z,2.88
2022-10-24T03:07:59.689Z,2.10
2022-10-24T03:10:27.047Z,2.50
2022-10-24T03:12:54.337Z,2.83
2022-10-24T03:15:23.016Z,3.42
2022-10-24T03:17:50.249Z,2.58
2022-10-24T03:20:17.600Z,2.47
2022-10-24T03:22:44.850Z,2.80
2022-10-24T03:25:12.364Z,2.40
2022-10-24T03:27:39.773Z,2.20
2022-10-24T03:30:07.633Z,2.42
2022-10-24T03:32:34.888Z,2.88
2022-10-24T03:35:02.412Z,3.25
2022-10-24T03:37:29.959Z,3.30
2022-10-24T03:39:57.224Z,2.13
2022-10-24T03:42:24.739Z,3.00
2022-10-24T03:44:55.343Z,2.72
2022-10-24T03:47:24.545Z,2.55
2022-10-24T03:49:51.701Z,3.35
2022-10-24T03:52:18.991Z,2.40
2022-10-24T03:54:46.242Z,3.38
2022-10-24T03:57:13.481Z,3.20
2022-10-24T03:59:40.759Z,2.90
2022-10-24T04:02:08.066Z,2.10
2022-10-24T04:04:35.324Z,3.20
2022-10-24T04:07:02.546Z,2.40
2022-10-24T04:09:29.718Z,2.35
2022-10-24T04:11:56.949Z,2.92
2022-10-24T04:14:24.195Z,2.90
2022-10-24T04:16:51.421Z,2.90
2022-10-24T04:19:18.877Z,2.67
2022-10-24T04:21:47.938Z,2.20
2022-10-24T04:24:15.805Z,2.17
2022-10-24T04:26:43.128Z,3.05
2022-10-24T04:29:10.421Z,2.15
2022-10-24T04:31:37.735Z,2.63
2022-10-24T04:34:05.714Z,3.08
2022-10-24T04:36:33.768Z,4.03
2022-10-24T04:41:28.233Z,2.55
2022-10-24T04:43:56.292Z,2.35
2022-10-24T04:46:23.559Z,2.55
2022-10-24T04:48:51.578Z,2.50
2022-10-24T04:51:21.690Z,3.00
2022-10-24T04:53:50.233Z,2.53
2022-10-24T04:56:17.734Z,3.25
2022-10-24T04:58:45.021Z,2.25
2022-10-24T05:01:12.287Z,1.90
2022-10-24T05:03:39.557Z,2.95
2022-10-24T05:06:07.869Z,2.88
2022-10-24T05:08:38.042Z,2.35
2022-10-24T05:11:05.355Z,3.20
2022-10-24T05:13:35.874Z,2.85
2022-10-24T05:16:04.431Z,2.80
2022-10-24T05:18:31.736Z,2.42
2022-10-24T05:20:59.783Z,2.70
2022-10-24T05:23:27.095Z,2.35
2022-10-24T05:25:55.678Z,3.38
2022-10-24T05:28:26.945Z,2.50
2022-10-24T05:30:54.157Z,2.47
2022-10-24T05:33:23.567Z,2.53
2022-10-24T05:35:52.004Z,3.22
2022-10-24T05:38:19.587Z,2.33
2022-10-24T05:40:49.219Z,3.17
2022-10-24T05:43:16.733Z,2.53
2022-10-24T05:45:44.063Z,2.47
2022-10-24T05:48:11.445Z,2.53
2022-10-24T05:50:38.659Z,2.70
2022-10-24T05:53:08.814Z,2.50
2022-10-24T05:55:36.438Z,2.63
2022-10-24T05:58:03.756Z,2.17
2022-10-24T06:00:33.854Z,2.80
2022-10-24T06:03:01.763Z,2.60
2022-10-24T06:05:29.010Z,3.00
2022-10-24T06:07:56.264Z,2.10
2022-10-24T06:10:25.152Z,2.20
2022-10-24T06:12:52.348Z,2.28
2022-10-24T06:15:19.777Z,3.13
2022-10-24T06:17:47.177Z,2.08
2022-10-24T06:20:14.502Z,3.17
2022-10-24T06:22:42.482Z,2.53
2022-10-24T06:25:10.151Z,2.42
2022-10-24T06:27:37.575Z,2.70
2022-10-24T06:30:05.444Z,2.47
2022-10-24T06:32:32.723Z,2.40
2022-10-24T06:35:00.331Z,1.92
2022-10-24T06:37:28.787Z,2.33
2022-10-24T06:39:57.997Z,2.47
2022-10-24T06:42:25.204Z,2.65
2022-10-24T06:44:52.426Z,2.00
2022-10-24T06:47:19.690Z,2.45
2022-10-24T06:49:46.949Z,2.55
2022-10-24T06:52:14.153Z,2.25
2022-10-24T06:54:41.453Z,2.03
2022-10-24T06:57:08.713Z,1.90
2022-10-24T06:59:35.945Z,2.53
2022-10-24T07:02:05.859Z,1.60
2022-10-24T07:04:33.517Z,2.10
2022-10-24T07:07:00.902Z,1.70
2022-10-24T07:09:29.034Z,1.55
2022-10-24T07:11:56.273Z,1.70
2022-10-24T07:14:25.781Z,1.70
2022-10-24T07:16:53.314Z,1.50
2022-10-24T07:19:20.522Z,1.20
2022-10-24T07:21:47.765Z,1.40
2022-10-24T07:24:15.009Z,1.92
2022-10-24T07:26:42.370Z,2.17
2022-10-24T07:29:09.661Z,1.70
2022-10-24T07:31:37.422Z,1.70
2022-10-24T07:34:06.294Z,1.50
2022-10-24T07:36:33.656Z,1.33
2022-10-24T07:39:01.329Z,1.30
2022-10-24T07:41:30.942Z,1.30
2022-10-24T07:43:59.073Z,1.27
2022-10-24T07:46:26.835Z,1.40
2022-10-24T07:48:54.679Z,1.80
2022-10-24T07:51:22.560Z,1.83
2022-10-24T07:53:49.834Z,1.77
2022-10-24T07:56:17.951Z,1.83
2022-10-24T07:58:45.690Z,1.40
2022-10-24T08:01:18.161Z,1.50
2022-10-24T08:03:45.998Z,1.60
2022-10-24T08:06:17.783Z,1.40
2022-10-24T08:08:46.285Z,1.25
2022-10-24T08:11:15.239Z,1.40
2022-10-24T08:13:42.422Z,1.23
2022-10-24T08:16:13.223Z,1.38
2022-10-24T08:18:46.084Z,1.30
2022-10-24T08:21:14.301Z,1.50
2022-10-24T08:23:42.836Z,1.30
2022-10-24T08:26:11.242Z,2.13
2022-10-24T08:28:38.491Z,1.27
2022-10-24T08:31:07.409Z,2.40
2022-10-24T08:33:35.237Z,1.50
2022-10-24T08:36:25.843Z,1.33
2022-10-24T08:38:53.097Z,1.50
2022-10-24T08:41:23.204Z,1.27
2022-10-24T08:43:50.438Z,1.73
2022-10-24T08:46:23.621Z,1.35
2022-10-24T08:48:54.834Z,1.40
2022-10-24T08:51:48.353Z,2.15
2022-10-24T08:54:18.899Z,1.90
2022-10-24T08:56:46.124Z,1.73
2022-10-24T08:59:13.667Z,1.70
2022-10-24T09:01:46.694Z,1.67
2022-10-24T09:04:15.675Z,1.65
2022-10-24T09:06:43.141Z,1.80
2022-10-24T09:09:10.461Z,1.90
2022-10-24T09:11:56.085Z,1.95
2022-10-24T09:14:25.054Z,2.17
2022-10-24T09:16:54.285Z,2.38
2022-10-24T09:19:25.259Z,2.92
2022-10-24T09:21:53.877Z,2.22
2022-10-24T09:24:37.562Z,2.40
2022-10-24T09:27:08.010Z,2.67
2022-10-24T09:29:35.400Z,2.60
2022-10-24T09:32:02.958Z,2.72
2022-10-24T09:34:30.181Z,2.22
2022-10-24T09:36:57.473Z,2.58
2022-10-24T09:39:31.827Z,1.67
2022-10-24T09:42:00.346Z,2.03
2022-10-24T09:44:35.032Z,2.33
2022-10-24T09:47:03.321Z,1.55
2022-10-24T09:49:33.218Z,1.63
2022-10-24T09:52:02.881Z,1.48
2022-10-24T09:54:31.245Z,1.60
2022-10-24T09:56:58.620Z,1.38
2022-10-24T09:59:45.410Z,1.75
2022-10-24T10:02:14.237Z,1.40
2022-10-24T10:04:41.958Z,1.55
2022-10-24T10:07:10.612Z,1.60
2022-10-24T10:09:42.375Z,1.83
2022-10-24T10:12:30.037Z,2.13
2022-10-24T10:14:57.292Z,1.75
2022-10-24T10:17:26.621Z,1.58
2022-10-24T10:19:54.836Z,1.23
2022-10-24T10:22:22.158Z,1.60
2022-10-24T10:24:49.499Z,1.63
2022-10-24T10:27:32.207Z,1.60
2022-10-24T10:30:15.258Z,1.77
2022-10-24T10:33:01.410Z,2.30
2022-10-24T10:35:40.933Z,1.80
2022-10-24T10:38:16.971Z,2.17
2022-10-24T10:40:47.848Z,1.85
2022-10-24T10:43:22.916Z,1.80
2022-10-24T10:45:58.679Z,1.58
2022-10-24T10:48:44.607Z,2.75
2022-10-24T10:51:26.959Z,2.00
2022-10-24T10:54:00.365Z,1.60
2022-10-24T10:56:44.064Z,1.65
2022-10-24T10:59:14.524Z,2.45
2022-10-24T11:01:52.078Z,1.73
2022-10-24T11:04:22.231Z,5.38
2022-10-24T11:06:55.202Z,2.47
2022-10-24T11:09:25.256Z,1.90
2022-10-24T11:12:04.729Z,1.92
2022-10-24T11:14:31.918Z,2.30
2022-10-24T11:17:25.653Z,2.00
2022-10-24T11:20:04.252Z,2.13
2022-10-24T11:22:58.025Z,1.20
2022-10-24T11:25:34.598Z,2.08
2022-10-24T11:28:08.288Z,1.67
2022-10-24T11:30:43.637Z,2.25
2022-10-24T11:33:15.170Z,2.75
2022-10-24T11:35:45.637Z,2.17
2022-10-24T11:38:19.314Z,1.83
2022-10-24T11:40:49.176Z,2.00
2022-10-24T11:43:22.705Z,1.92
2022-10-24T11:45:59.832Z,1.33
2022-10-24T11:48:36.234Z,1.70
2022-10-24T11:51:21.556Z,1.75
2022-10-24T11:53:54.416Z,1.67
2022-10-24T11:56:43.062Z,1.42
2022-10-24T11:59:16.559Z,2.03
2022-10-24T12:01:56.491Z,2.00
2022-10-24T12:04:30.631Z,1.45
2022-10-24T12:06:57.981Z,2.85
2022-10-24T12:09:51.459Z,2.33
2022-10-24T12:12:37.242Z,1.73
2022-10-24T12:15:10.584Z,1.77
2022-10-24T12:17:54.579Z,1.85
2022-10-24T12:20:22.921Z,1.70
2022-10-24T12:22:50.847Z,1.42
2022-10-24T12:25:30.600Z,1.80
2022-10-24T12:27:59.047Z,1.50
2022-10-24T12:30:27.460Z,2.95
2022-10-24T12:33:14.937Z,1.83
2022-10-24T12:35:44.505Z,1.75
2022-10-24T12:38:18.028Z,1.55
2022-10-24T12:40:52.290Z,1.95
2022-10-24T12:43:31.739Z,2.58
2022-10-24T12:46:09.421Z,2.67
2022-10-24T12:48:40.856Z,1.70
2022-10-24T12:51:37.756Z,2.28
2022-10-24T12:54:05.121Z,2.13
2022-10-24T12:56:33.994Z,2.70
2022-10-24T12:59:20.108Z,3.17
2022-10-24T13:01:48.748Z,3.38
2022-10-24T13:04:35.007Z,2.25
2022-10-24T13:07:11.393Z,2.92
2022-10-24T13:09:57.413Z,2.80
2022-10-24T13:12:24.689Z,1.88
2022-10-24T13:14:56.387Z,1.80
2022-10-24T13:17:32.689Z,1.92
2022-10-24T13:20:07.598Z,1.50
2022-10-24T13:22:36.760Z,1.98
2022-10-24T13:25:33.729Z,1.90
2022-10-24T13:28:20.638Z,2.10
2022-10-24T13:30:51.987Z,2.22
2022-10-24T13:33:31.494Z,2.45
2022-10-24T13:36:08.023Z,1.92
2022-10-24T13:38:41.711Z,2.10
2022-10-24T13:41:11.627Z,2.20
2022-10-24T13:43:49.299Z,2.05
2022-10-24T13:46:24.105Z,1.63
2022-10-24T13:48:53.235Z,1.88
2022-10-24T13:51:35.574Z,1.63
2022-10-24T13:54:11.764Z,1.60
2022-10-24T13:56:40.345Z,1.38
2022-10-24T13:59:27.316Z,1.42
2022-10-24T14:01:55.049Z,2.60
2022-10-24T14:04:22.417Z,2.55
2022-10-24T14:06:50.303Z,1.38
2022-10-24T14:09:17.580Z,1.50
2022-10-24T14:11:46.293Z,1.55
2022-10-24T14:14:23.595Z,1.35
2022-10-24T14:17:05.171Z,1.38
2022-10-24T14:19:36.208Z,1.83
2022-10-24T14:22:04.617Z,1.92
2022-10-24T14:24:32.218Z,2.03
2022-10-24T14:27:00.375Z,2.03
2022-10-24T14:29:31.226Z,1.63
2022-10-24T14:32:07.894Z,1.48
2022-10-24T14:34:36.850Z,0.80
2022-10-24T14:37:05.962Z,1.48
2022-10-24T14:39:33.749Z,0.90
2022-10-24T14:42:03.042Z,1.20
2022-10-24T14:44:31.529Z,2.00
2022-10-24T14:47:03.991Z,6.55
2022-10-24T14:49:36.936Z,6.25
2022-10-24T14:52:12.264Z,7.25
2022-10-24T14:54:40.030Z,8.70
2022-10-24T14:57:15.995Z,9.52
2022-10-24T14:59:45.076Z,8.90
2022-10-24T15:02:21.141Z,5.25
2022-10-24T15:04:48.763Z,3.33
2022-10-24T15:07:16.455Z,5.30
2022-10-24T15:09:53.161Z,6.10
2022-10-24T15:12:26.312Z,4.20
2022-10-24T15:14:54.483Z,2.65
2022-10-24T15:17:31.546Z,2.20
2022-10-24T15:20:03.861Z,1.95
2022-10-24T15:22:31.291Z,2.10
2022-10-24T15:25:00.670Z,2.50
2022-10-24T15:27:32.119Z,6.30
2022-10-24T15:29:59.654Z,6.28
2022-10-24T15:32:26.837Z,4.80
2022-10-24T15:34:54.946Z,4.30
2022-10-24T15:37:24.081Z,3.63
2022-10-24T15:39:52.005Z,2.53
2022-10-24T15:42:21.611Z,2.70
2022-10-24T15:44:50.102Z,2.30
2022-10-24T15:47:17.556Z,2.30
2022-10-24T15:49:44.754Z,2.13
2022-10-24T15:52:14.013Z,2.42
2022-10-24T15:54:42.247Z,3.40
2022-10-24T15:57:13.072Z,2.88
2022-10-24T15:59:40.582Z,3.30
2022-10-24T16:02:12.586Z,3.72
2022-10-24T16:04:40.362Z,2.80
2022-10-24T16:09:35.050Z,2.63
2022-10-24T16:12:02.290Z,2.22
2022-10-24T16:14:30.501Z,2.70
2022-10-24T16:16:57.977Z,2.33
2022-10-24T16:19:29.041Z,3.20
2022-10-24T16:22:01.044Z,2.78
2022-10-24T16:24:29.140Z,4.55
2022-10-24T16:26:57.721Z,4.13
2022-10-24T16:29:26.442Z,6.70
2022-10-24T16:31:56.232Z,4.07
2022-10-24T16:34:24.688Z,6.25
2022-10-24T16:36:55.802Z,5.00
2022-10-24T16:39:24.156Z,4.20
2022-10-24T16:41:54.223Z,3.15
2022-10-24T16:44:23.539Z,3.13
2022-10-24T16:46:54.832Z,3.60
2022-10-24T16:49:22.260Z,3.20
2022-10-24T16:51:49.481Z,4.57
2022-10-24T16:54:16.733Z,3.85
2022-10-24T16:56:44.800Z,9.05
2022-10-24T16:59:15.343Z,13.80
2022-10-24T17:01:43.197Z,4.63
2022-10-24T17:04:10.689Z,4.00
2022-10-24T17:06:38.003Z,4.82
2022-10-24T17:09:05.300Z,3.40
2022-10-24T17:11:44.861Z,11.18
2022-10-24T17:14:14.296Z,5.50
2022-10-24T17:16:41.975Z,4.03
2022-10-24T17:19:16.187Z,4.68
2022-10-24T17:21:44.625Z,2.90
2022-10-24T17:24:12.886Z,3.05
2022-10-24T17:26:40.760Z,2.47
2022-10-24T17:29:08.594Z,3.80
2022-10-24T17:31:36.543Z,3.30
2022-10-24T17:34:04.143Z,2.50
2022-10-24T17:36:35.484Z,4.47
2022-10-24T17:39:18.855Z,5.68
2022-10-24T17:41:46.186Z,2.80
2022-10-24T17:44:16.704Z,3.80
2022-10-24T17:46:44.777Z,2.67
2022-10-24T17:49:16.552Z,2.95
2022-10-24T17:51:47.359Z,2.20
2022-10-24T17:54:15.568Z,3.45
2022-10-24T17:56:43.184Z,4.20
2022-10-24T17:59:10.483Z,2.83
2022-10-24T18:01:38.349Z,3.20
2022-10-24T18:04:05.911Z,2.63
2022-10-24T18:06:34.090Z,3.65
2022-10-24T18:09:01.405Z,3.25
2022-10-24T18:11:29.563Z,2.85
2022-10-24T18:13:56.887Z,3.20
2022-10-24T18:16:30.628Z,2.40
2022-10-24T18:18:58.184Z,2.40
2022-10-24T18:21:27.195Z,1.40
2022-10-24T18:23:54.833Z,2.22
2022-10-24T18:26:23.067Z,1.52
2022-10-24T18:28:51.380Z,1.50
2022-10-24T18:31:19.908Z,1.58
2022-10-24T18:33:47.368Z,1.58
2022-10-24T18:36:19.376Z,2.88
2022-10-24T18:38:47.573Z,2.10
2022-10-24T18:41:33.903Z,1.50
2022-10-24T18:44:02.644Z,2.10
2022-10-24T18:46:30.385Z,1.73
2022-10-24T18:48:57.722Z,1.45
2022-10-24T18:51:34.297Z,1.70
2022-10-24T18:54:04.379Z,1.75
2022-10-24T18:56:31.833Z,1.80
2022-10-24T18:58:59.377Z,2.15
2022-10-24T19:01:40.633Z,2.00
2022-10-24T19:04:13.844Z,3.47
2022-10-24T19:06:41.318Z,1.87
2022-10-24T19:09:27.379Z,3.80
2022-10-24T19:11:54.814Z,1.83
2022-10-24T19:14:22.192Z,2.28
2022-10-24T19:16:51.182Z,2.20
2022-10-24T19:19:44.867Z,2.17
2022-10-24T19:22:12.183Z,3.08
2022-10-24T19:24:39.622Z,2.47
2022-10-24T19:27:07.171Z,3.05
2022-10-24T19:29:34.421Z,3.15
2022-10-24T19:32:01.920Z,3.15
2022-10-24T19:34:32.412Z,2.22
2022-10-24T19:37:02.149Z,2.20
2022-10-24T19:39:33.833Z,2.08
2022-10-24T19:42:01.894Z,1.52
2022-10-24T19:44:29.405Z,1.60
2022-10-24T19:46:56.773Z,3.58
2022-10-24T19:49:24.114Z,1.95
2022-10-24T19:51:52.453Z,2.50
2022-10-24T19:54:20.012Z,1.90
2022-10-24T19:56:50.968Z,2.00
2022-10-24T19:59:19.409Z,2.13
2022-10-24T20:01:46.867Z,2.23
2022-10-24T20:04:14.392Z,2.50
2022-10-24T20:06:42.613Z,2.60
2022-10-24T20:09:11.609Z,2.87
2022-10-24T20:11:39.365Z,2.53
2022-10-24T20:14:06.722Z,1.83
2022-10-24T20:16:34.226Z,2.73
2022-10-24T20:19:01.458Z,1.77
2022-10-24T20:21:28.920Z,1.60
2022-10-24T20:23:56.394Z,2.03
2022-10-24T20:26:25.048Z,1.50
2022-10-24T20:28:53.385Z,1.80
2022-10-24T20:31:26.621Z,1.10
2022-10-24T20:33:54.058Z,1.20
2022-10-24T20:36:21.572Z,1.40
2022-10-24T20:38:48.953Z,1.20
2022-10-24T20:41:16.302Z,1.20
2022-10-24T20:43:44.068Z,1.20
2022-10-24T20:46:11.500Z,1.70
2022-10-24T20:48:39.087Z,1.63
2022-10-24T20:51:08.377Z,1.27
2022-10-24T20:53:35.872Z,2.03
2022-10-24T20:56:07.353Z,1.23
2022-10-24T20:58:37.095Z,1.47
2022-10-24T21:01:23.684Z,1.70
2022-10-24T21:03:51.690Z,1.20
2022-10-24T21:06:29.816Z,2.30
2022-10-24T21:08:58.834Z,1.57
2022-10-24T21:11:28.090Z,1.07
2022-10-24T21:13:59.914Z,1.03
2022-10-24T21:16:28.327Z,1.30
2022-10-24T21:18:56.052Z,0.93
2022-10-24T21:21:23.956Z,1.20
2022-10-24T21:23:55.438Z,1.20
2022-10-24T21:26:23.301Z,1.33
2022-10-24T21:28:59.428Z,1.30
2022-10-24T21:31:36.571Z,2.13
2022-10-24T21:34:06.929Z,1.80
2022-10-24T21:36:34.243Z,2.90
2022-10-24T21:39:01.778Z,3.20
2022-10-24T21:41:29.545Z,3.40
2022-10-24T21:43:57.220Z,2.27
2022-10-24T21:46:26.442Z,1.93
2022-10-24T21:48:57.753Z,1.80
2022-10-24T21:51:26.800Z,1.67
2022-10-24T21:53:55.359Z,2.30
2022-10-24T21:56:25.111Z,2.57
2022-10-24T21:58:54.593Z,1.60
2022-10-24T22:01:23.616Z,1.50
2022-10-24T22:03:50.955Z,2.37
2022-10-24T22:06:18.735Z,1.50
2022-10-24T22:08:46.609Z,1.53
2022-10-24T22:11:17.983Z,1.53
2022-10-24T22:13:45.547Z,1.10
2022-10-24T22:16:13.334Z,1.83
2022-10-24T22:18:40.826Z,1.60
2022-10-24T22:21:09.991Z,1.90
2022-10-24T22:23:37.507Z,1.33
2022-10-24T22:26:04.797Z,1.63
2022-10-24T22:28:32.030Z,3.27
2022-10-24T22:30:59.690Z,2.93
2022-10-24T22:33:33.174Z,1.80
2022-10-24T22:36:13.243Z,2.13
2022-10-24T22:38:44.737Z,3.07
2022-10-24T22:41:13.779Z,2.20
2022-10-24T22:43:41.197Z,2.80
2022-10-24T22:46:14.745Z,2.90
2022-10-24T22:48:45.415Z,2.30
2022-10-24T22:51:15.098Z,2.50
2022-10-24T22:53:43.468Z,2.63
2022-10-24T22:56:15.641Z,3.30
2022-10-24T22:58:43.923Z,3.33
2022-10-24T23:01:27.903Z,3.00
2022-10-24T23:03:55.339Z,3.90
2022-10-24T23:06:41.314Z,5.43
2022-10-24T23:09:10.887Z,3.50
2022-10-24T23:11:38.831Z,3.57
2022-10-24T23:14:06.312Z,4.20
2022-10-24T23:16:33.580Z,3.10
2022-10-24T23:19:01.045Z,3.80
2022-10-24T23:21:40.289Z,3.10
2022-10-24T23:24:17.760Z,2.70
2022-10-24T23:27:03.770Z,2.70
2022-10-24T23:29:32.293Z,3.17
2022-10-24T23:31:59.743Z,3.40
2022-10-24T23:34:27.208Z,2.90
2022-10-24T23:36:57.835Z,4.00
2022-10-24T23:39:25.366Z,4.63
2022-10-24T23:41:52.785Z,4.47
2022-10-24T23:44:20.314Z,4.40
2022-10-24T23:46:49.080Z,3.43
2022-10-24T23:49:16.344Z,3.80
2022-10-24T23:51:51.335Z,3.13
2022-10-24T23:54:20.337Z,3.63
2022-10-24T23:56:47.783Z,3.60
2022-10-24T23:59:15.010Z,2.90
